Eko1 — SZIP — position and weather

sailwx.info

Track history (hours):
 
Tides and Currents Weather Stations Pressure Air Temp Water Temp Dewpoint Dewpoint Depression Visibility Wind Speed Wind Dir Waves Ship Positions

Eko1

Last reported at 2017-Sep-21 10:58 UTC. Time now 2017-Sep-24 17:41 UTC.
Position N 37°06' E 024°57'.

Length 90 m; draft 4.4 m.

Type: Ship (hazmat cat A). MMSI: 240718000.

Date/timePositionNaut miles runAvg speedWind from/ knotsBaromVisibWave heightAir tempDewpointWater temp
2017-Sep-21 10:58N 37°06' E 024°57'510.7
2017-Sep-21 10:30N 37°05' E 025°03'5 3.7
2017-Sep-21 09:12N 37°05' E 025°09'0 0.0
2017-Sep-20 20:00N 37°05' E 025°08'4 7.2
2017-Sep-20 19:25N 37°09' E 025°11'410.1
2017-Sep-20 19:01N 37°11' E 025°15'510.2
2017-Sep-20 18:30N 37°12' E 025°21'510.4
2017-Sep-20 18:01N 37°13' E 025°28'5 9.9
2017-Sep-20 17:30N 37°14' E 025°34'510.1
2017-Sep-20 17:01N 37°14' E 025°40'510.5
2017-Sep-20 16:30N 37°13' E 025°47'163 3.2
2017-Sep-18 14:01N 39°52' E 025°03'0 0.0
2017-Sep-18 13:47N 39°52' E 025°03'0 0.0
2017-Sep-18 13:18N 39°52' E 025°03'0 0.0
2017-Sep-18 13:00N 39°52' E 025°03'0 0.0
2017-Sep-18 12:30N 39°52' E 025°03'0 0.0
2017-Sep-18 12:00N 39°52' E 025°03'0 0.0
2017-Sep-18 11:13N 39°52' E 025°03'0 0.0
2017-Sep-18 10:59N 39°52' E 025°03'0 0.0
2017-Sep-18 10:30N 39°52' E 025°03'0 0.0
2017-Sep-18 10:00N 39°52' E 025°03'0 0.0
2017-Sep-18 09:29N 39°52' E 025°03'0 0.0
2017-Sep-18 09:00N 39°52' E 025°03'0 0.0
2017-Sep-18 08:30N 39°52' E 025°03'0 0.0
2017-Sep-18 07:53N 39°52' E 025°03'0 0.0
2017-Sep-18 07:29N 39°52' E 025°03'0 0.0
2017-Sep-18 07:00N 39°52' E 025°03'0 0.0
2017-Sep-18 06:29N 39°52' E 025°03'0 0.0
2017-Sep-18 06:00N 39°52' E 025°03'0 0.0
2017-Sep-18 04:39N 39°52' E 025°03'0 0.0
2017-Sep-18 04:30N 39°52' E 025°03'0 0.0
2017-Sep-18 04:00N 39°52' E 025°03'0 0.0
2017-Sep-18 02:33N 39°52' E 025°03'0 0.0
2017-Sep-18 02:29N 39°52' E 025°03'0 0.0
2017-Sep-18 00:57N 39°52' E 025°03'0 0.0
2017-Sep-18 00:30N 39°52' E 025°03'0 0.0
2017-Sep-17 23:06N 39°52' E 025°03'0 0.0
2017-Sep-17 22:55N 39°52' E 025°03'0 0.0
2017-Sep-17 22:30N 39°52' E 025°03'0 0.0
2017-Sep-17 20:53N 39°52' E 025°03'0 0.0
2017-Sep-17 20:07N 39°52' E 025°03'0 0.0
2017-Sep-17 19:41N 39°52' E 025°03'0 0.0
2017-Sep-17 19:28N 39°52' E 025°03'0 0.0
2017-Sep-17 18:54N 39°52' E 025°03'0 0.0
2017-Sep-17 18:10N 39°52' E 025°03'0 0.0
2017-Sep-17 16:59N 39°52' E 025°03'0 0.0
2017-Sep-17 16:27N 39°52' E 025°03'0 0.0
2017-Sep-17 16:00N 39°52' E 025°03'0 0.0
2017-Sep-17 15:30N 39°52' E 025°03'0 0.0
2017-Sep-17 15:00N 39°52' E 025°03'0 0.0
2017-Sep-17 14:29N 39°52' E 025°03'0 0.0
2017-Sep-17 14:00N 39°52' E 025°03'0 0.0
2017-Sep-17 13:30N 39°52' E 025°03'0 0.0
2017-Sep-17 12:59N 39°52' E 025°03'0 0.0
2017-Sep-17 12:14N 39°52' E 025°03'0 0.3
2017-Sep-17 11:51N 39°52' E 025°03'3 6.2
2017-Sep-17 11:24N 39°51' E 024°60'410.6
2017-Sep-17 11:00N 39°50' E 024°55'510.2
2017-Sep-17 10:30N 39°47' E 024°49'510.1
2017-Sep-17 09:58N 39°45' E 024°43'510.5
2017-Sep-17 09:30N 39°43' E 024°37'510.7
2017-Sep-17 09:00N 39°41' E 024°31'611.0
2017-Sep-17 08:30N 39°38' E 024°24'610.9
2017-Sep-17 08:00N 39°36' E 024°17'710.9
2017-Sep-17 07:24N 39°34' E 024°10'410.9
2017-Sep-17 06:59N 39°32' E 024°05'710.9
2017-Sep-17 06:21N 39°28' E 023°57'1911.3
2017-Sep-17 04:42N 39°16' E 023°39'111 3.5
2017-Sep-15 21:17N 37°40' E 024°51'310.5
2017-Sep-15 21:00N 37°37' E 024°53'34 6.3
2017-Sep-15 15:38N 37°05' E 025°09'0 0.1
2017-Sep-15 14:04N 37°05' E 025°09'0 1.7
2017-Sep-15 13:55N 37°05' E 025°08'3 8.4
2017-Sep-15 13:31N 37°07' E 025°05'611.0
2017-Sep-15 13:01N 37°11' E 024°60'611.2
2017-Sep-15 12:31N 37°15' E 024°55'611.4
2017-Sep-15 12:01N 37°19' E 024°51'611.2
2017-Sep-15 11:31N 37°23' E 024°46'18 0.6
2017-Sep-14 05:56N 37°37' E 025°00'510.8
2017-Sep-14 05:30N 37°34' E 025°04'510.6
2017-Sep-14 05:00N 37°31' E 025°09'510.7
2017-Sep-14 04:30N 37°29' E 025°16'3 6.1
2017-Sep-14 03:59N 37°28' E 025°19'0 0.0
2017-Sep-14 03:23N 37°28' E 025°19'0 0.0
2017-Sep-14 02:59N 37°28' E 025°19'0 0.0
2017-Sep-14 02:29N 37°28' E 025°19'0 0.0
2017-Sep-14 01:59N 37°28' E 025°19'0 0.0
2017-Sep-14 01:29N 37°28' E 025°19'0 0.0
2017-Sep-14 00:59N 37°28' E 025°19'0 0.0
2017-Sep-14 00:29N 37°28' E 025°19'0 0.0
2017-Sep-13 23:59N 37°28' E 025°19'0 0.0
2017-Sep-13 23:29N 37°28' E 025°19'0 0.0
2017-Sep-13 22:59N 37°28' E 025°19'0 0.0
2017-Sep-13 22:29N 37°28' E 025°19'0 0.0
2017-Sep-13 21:59N 37°28' E 025°19'0 0.0
2017-Sep-13 21:29N 37°28' E 025°19'0 0.0
2017-Sep-13 20:59N 37°28' E 025°19'0 0.0
2017-Sep-13 20:29N 37°28' E 025°19'0 0.0
2017-Sep-13 19:59N 37°28' E 025°19'0 0.0
2017-Sep-13 19:29N 37°28' E 025°19'0 0.0
2017-Sep-13 18:53N 37°28' E 025°19'0 0.0
2017-Sep-13 18:23N 37°28' E 025°19'0 0.0
2017-Sep-13 17:53N 37°28' E 025°19'0 0.0
2017-Sep-13 17:29N 37°28' E 025°19'0 0.0
2017-Sep-13 16:59N 37°28' E 025°19'1 2.4
2017-Sep-13 16:30N 37°27' E 025°19'0 0.0
2017-Sep-13 15:57N 37°27' E 025°19'0 0.0
2017-Sep-13 15:24N 37°27' E 025°19'0 0.0
2017-Sep-13 14:54N 37°27' E 025°19'0 0.0
2017-Sep-13 14:30N 37°27' E 025°19'0 0.0
2017-Sep-13 14:00N 37°27' E 025°19'0 0.0
2017-Sep-13 13:30N 37°27' E 025°19'0 0.0
2017-Sep-13 12:57N 37°27' E 025°19'0 0.0
2017-Sep-13 12:30N 37°27' E 025°19'0 0.0
2017-Sep-13 12:00N 37°27' E 025°19'0 0.0
2017-Sep-13 11:30N 37°27' E 025°19'0 0.0
2017-Sep-13 11:00N 37°27' E 025°19'0 0.1
2017-Sep-13 10:30N 37°27' E 025°19'0 0.0
2017-Sep-13 09:57N 37°27' E 025°19'0 0.3
2017-Sep-13 09:30N 37°27' E 025°19'3 5.9
2017-Sep-13 09:01N 37°24' E 025°17'510.4
2017-Sep-13 08:31N 37°19' E 025°18'510.1
2017-Sep-13 08:01N 37°14' E 025°20'510.2
2017-Sep-13 07:31N 37°09' E 025°21'3 5.7
2017-Sep-13 06:58N 37°06' E 025°21'0 0.1
2017-Sep-13 06:28N 37°06' E 025°21'0 0.0
2017-Sep-13 05:58N 37°06' E 025°21'0 0.1
2017-Sep-13 05:28N 37°06' E 025°21'0 0.0
2017-Sep-13 04:58N 37°06' E 025°21'0 0.0
2017-Sep-13 04:28N 37°06' E 025°21'0 0.0
2017-Sep-13 03:58N 37°06' E 025°21'0 0.0
2017-Sep-13 03:28N 37°06' E 025°21'0 0.0
2017-Sep-13 02:58N 37°06' E 025°21'0 0.1
2017-Sep-13 02:28N 37°06' E 025°21'0 0.1
2017-Sep-13 01:58N 37°06' E 025°21'0 0.0
2017-Sep-13 01:28N 37°06' E 025°21'0 0.0
2017-Sep-13 00:55N 37°06' E 025°21'0 0.0
2017-Sep-13 00:28N 37°06' E 025°21'0 0.0
2017-Sep-12 23:58N 37°06' E 025°21'0 0.0
2017-Sep-12 23:28N 37°06' E 025°21'0 0.0
2017-Sep-12 22:55N 37°06' E 025°21'0 0.0
2017-Sep-12 22:28N 37°06' E 025°21'0 0.0
2017-Sep-12 21:58N 37°06' E 025°21'0 0.0
2017-Sep-12 21:28N 37°06' E 025°21'0 0.1
2017-Sep-12 20:58N 37°06' E 025°21'1 1.6
2017-Sep-12 20:31N 37°06' E 025°22'0 0.0
2017-Sep-12 20:00N 37°06' E 025°22'0 0.0
2017-Sep-12 19:30N 37°06' E 025°22'0 0.0
2017-Sep-12 18:57N 37°06' E 025°22'0 0.0
2017-Sep-12 18:30N 37°06' E 025°22'0 0.0
2017-Sep-12 17:24N 37°06' E 025°22'0 0.0
2017-Sep-12 17:00N 37°06' E 025°22'0 0.0
2017-Sep-12 16:30N 37°06' E 025°22'0 0.0
2017-Sep-12 16:00N 37°06' E 025°22'0 0.7
2017-Sep-12 15:30N 37°06' E 025°22'1 1.0
2017-Sep-12 14:58N 37°06' E 025°21'0 0.0
2017-Sep-12 14:28N 37°06' E 025°21'0 0.0
2017-Sep-12 13:58N 37°06' E 025°21'0 0.0
2017-Sep-12 13:28N 37°06' E 025°21'0 0.0
2017-Sep-12 12:58N 37°06' E 025°21'0 0.0
2017-Sep-12 12:28N 37°06' E 025°21'0 0.0
2017-Sep-12 12:00N 37°06' E 025°21'0 0.2
2017-Sep-12 11:30N 37°06' E 025°21'0 0.0
2017-Sep-12 11:00N 37°06' E 025°21'0 0.2
2017-Sep-12 10:30N 37°06' E 025°21'0 0.2
2017-Sep-12 10:00N 37°06' E 025°21'4 8.9
2017-Sep-12 09:30N 37°10' E 025°19'510.5
2017-Sep-12 09:00N 37°15' E 025°16'510.7
2017-Sep-12 08:30N 37°20' E 025°13'510.2
2017-Sep-12 08:00N 37°24' E 025°11'510.1
2017-Sep-12 07:30N 37°29' E 025°10'3 5.4
2017-Sep-12 06:58N 37°32' E 025°09'0 0.0
2017-Sep-12 06:28N 37°32' E 025°09'0 0.0
2017-Sep-12 05:52N 37°32' E 025°09'0 0.0
2017-Sep-12 05:28N 37°32' E 025°09'0 0.0
2017-Sep-12 04:58N 37°32' E 025°09'0 0.0
2017-Sep-12 04:28N 37°32' E 025°09'0 0.0
2017-Sep-12 03:58N 37°32' E 025°09'0 0.0
2017-Sep-12 03:28N 37°32' E 025°09'0 0.0
2017-Sep-12 02:58N 37°32' E 025°09'0 0.0
2017-Sep-12 02:28N 37°32' E 025°09'0 0.0
2017-Sep-12 01:58N 37°32' E 025°09'0 0.0
2017-Sep-12 01:28N 37°32' E 025°09'0 0.0
2017-Sep-12 00:58N 37°32' E 025°09'0 0.0
2017-Sep-12 00:28N 37°32' E 025°09'0 0.0
2017-Sep-11 23:58N 37°32' E 025°09'0 0.0
2017-Sep-11 23:25N 37°32' E 025°09'0 0.0
2017-Sep-11 22:58N 37°32' E 025°09'0 0.0
2017-Sep-11 22:25N 37°32' E 025°09'0 0.0
2017-Sep-11 21:58N 37°32' E 025°09'0 0.0
2017-Sep-11 21:28N 37°32' E 025°09'0 0.0
2017-Sep-11 20:58N 37°32' E 025°09'0 0.0
2017-Sep-11 20:28N 37°32' E 025°09'0 0.0
2017-Sep-11 19:55N 37°32' E 025°09'0 0.0
2017-Sep-11 19:28N 37°32' E 025°09'0 0.0
2017-Sep-11 18:55N 37°32' E 025°09'0 0.0
2017-Sep-11 18:25N 37°32' E 025°09'0 0.0
2017-Sep-11 17:55N 37°32' E 025°09'0 0.0
2017-Sep-11 17:22N 37°32' E 025°09'0 0.0
2017-Sep-11 16:52N 37°32' E 025°09'0 0.0
2017-Sep-11 16:28N 37°32' E 025°09'0 1.0
2017-Sep-11 16:00N 37°32' E 025°09'510.2
2017-Sep-11 15:30N 37°29' E 025°04'611.1
2017-Sep-11 15:00N 37°26' E 024°58'1 0.3
2017-Sep-11 11:43N 37°26' E 024°56'0 0.0
2017-Sep-11 11:19N 37°26' E 024°56'0 0.0
2017-Sep-11 10:58N 37°26' E 024°56'  
Track history (hours):
 
Tides and Currents Weather Stations Pressure Air Temp Water Temp Dewpoint Dewpoint Depression Visibility Wind Speed Wind Dir Waves Ship Positions

Eko1

Last reported at 2017-Sep-21 10:58 UTC. Time now 2017-Sep-24 17:42 UTC.
Position N 37°06' E 024°57'.

Length 90 m; draft 4.4 m.

Type: Ship (hazmat cat A). MMSI: 240718000.

Date/timePositionNaut miles runAvg speedWind from/ knotsBaromVisibWave heightAir tempDewpointWater temp
2017-Sep-21 10:58N 37°06' E 024°57'510.7
2017-Sep-21 10:30N 37°05' E 025°03'5 3.7
2017-Sep-21 09:12N 37°05' E 025°09'0 0.0
2017-Sep-20 20:00N 37°05' E 025°08'4 7.2
2017-Sep-20 19:25N 37°09' E 025°11'410.1
2017-Sep-20 19:01N 37°11' E 025°15'510.2
2017-Sep-20 18:30N 37°12' E 025°21'510.4
2017-Sep-20 18:01N 37°13' E 025°28'5 9.9
2017-Sep-20 17:30N 37°14' E 025°34'510.1
2017-Sep-20 17:01N 37°14' E 025°40'510.5
2017-Sep-20 16:30N 37°13' E 025°47'163 3.2
2017-Sep-18 14:01N 39°52' E 025°03'0 0.0
2017-Sep-18 13:47N 39°52' E 025°03'0 0.0
2017-Sep-18 13:18N 39°52' E 025°03'0 0.0
2017-Sep-18 13:00N 39°52' E 025°03'0 0.0
2017-Sep-18 12:30N 39°52' E 025°03'0 0.0
2017-Sep-18 12:00N 39°52' E 025°03'0 0.0
2017-Sep-18 11:13N 39°52' E 025°03'0 0.0
2017-Sep-18 10:59N 39°52' E 025°03'0 0.0
2017-Sep-18 10:30N 39°52' E 025°03'0 0.0
2017-Sep-18 10:00N 39°52' E 025°03'0 0.0
2017-Sep-18 09:29N 39°52' E 025°03'0 0.0
2017-Sep-18 09:00N 39°52' E 025°03'0 0.0
2017-Sep-18 08:30N 39°52' E 025°03'0 0.0
2017-Sep-18 07:53N 39°52' E 025°03'0 0.0
2017-Sep-18 07:29N 39°52' E 025°03'0 0.0
2017-Sep-18 07:00N 39°52' E 025°03'0 0.0
2017-Sep-18 06:29N 39°52' E 025°03'0 0.0
2017-Sep-18 06:00N 39°52' E 025°03'0 0.0
2017-Sep-18 04:39N 39°52' E 025°03'0 0.0
2017-Sep-18 04:30N 39°52' E 025°03'0 0.0
2017-Sep-18 04:00N 39°52' E 025°03'0 0.0
2017-Sep-18 02:33N 39°52' E 025°03'0 0.0
2017-Sep-18 02:29N 39°52' E 025°03'0 0.0
2017-Sep-18 00:57N 39°52' E 025°03'0 0.0
2017-Sep-18 00:30N 39°52' E 025°03'0 0.0
2017-Sep-17 23:06N 39°52' E 025°03'0 0.0
2017-Sep-17 22:55N 39°52' E 025°03'0 0.0
2017-Sep-17 22:30N 39°52' E 025°03'0 0.0
2017-Sep-17 20:53N 39°52' E 025°03'0 0.0
2017-Sep-17 20:07N 39°52' E 025°03'0 0.0
2017-Sep-17 19:41N 39°52' E 025°03'0 0.0
2017-Sep-17 19:28N 39°52' E 025°03'0 0.0
2017-Sep-17 18:54N 39°52' E 025°03'0 0.0
2017-Sep-17 18:10N 39°52' E 025°03'0 0.0
2017-Sep-17 16:59N 39°52' E 025°03'0 0.0
2017-Sep-17 16:27N 39°52' E 025°03'0 0.0
2017-Sep-17 16:00N 39°52' E 025°03'0 0.0
2017-Sep-17 15:30N 39°52' E 025°03'0 0.0
2017-Sep-17 15:00N 39°52' E 025°03'0 0.0
2017-Sep-17 14:29N 39°52' E 025°03'0 0.0
2017-Sep-17 14:00N 39°52' E 025°03'0 0.0
2017-Sep-17 13:30N 39°52' E 025°03'0 0.0
2017-Sep-17 12:59N 39°52' E 025°03'0 0.0
2017-Sep-17 12:14N 39°52' E 025°03'0 0.3
2017-Sep-17 11:51N 39°52' E 025°03'3 6.2
2017-Sep-17 11:24N 39°51' E 024°60'410.6
2017-Sep-17 11:00N 39°50' E 024°55'510.2
2017-Sep-17 10:30N 39°47' E 024°49'510.1
2017-Sep-17 09:58N 39°45' E 024°43'510.5
2017-Sep-17 09:30N 39°43' E 024°37'510.7
2017-Sep-17 09:00N 39°41' E 024°31'611.0
2017-Sep-17 08:30N 39°38' E 024°24'610.9
2017-Sep-17 08:00N 39°36' E 024°17'710.9
2017-Sep-17 07:24N 39°34' E 024°10'410.9
2017-Sep-17 06:59N 39°32' E 024°05'710.9
2017-Sep-17 06:21N 39°28' E 023°57'1911.3
2017-Sep-17 04:42N 39°16' E 023°39'111 3.5
2017-Sep-15 21:17N 37°40' E 024°51'310.5
2017-Sep-15 21:00N 37°37' E 024°53'34 6.3
2017-Sep-15 15:38N 37°05' E 025°09'0 0.1
2017-Sep-15 14:04N 37°05' E 025°09'0 1.7
2017-Sep-15 13:55N 37°05' E 025°08'3 8.4
2017-Sep-15 13:31N 37°07' E 025°05'611.0
2017-Sep-15 13:01N 37°11' E 024°60'611.2
2017-Sep-15 12:31N 37°15' E 024°55'611.4
2017-Sep-15 12:01N 37°19' E 024°51'611.2
2017-Sep-15 11:31N 37°23' E 024°46'18 0.6
2017-Sep-14 05:56N 37°37' E 025°00'510.8
2017-Sep-14 05:30N 37°34' E 025°04'510.6
2017-Sep-14 05:00N 37°31' E 025°09'510.7
2017-Sep-14 04:30N 37°29' E 025°16'3 6.1
2017-Sep-14 03:59N 37°28' E 025°19'0 0.0
2017-Sep-14 03:23N 37°28' E 025°19'0 0.0
2017-Sep-14 02:59N 37°28' E 025°19'0 0.0
2017-Sep-14 02:29N 37°28' E 025°19'0 0.0
2017-Sep-14 01:59N 37°28' E 025°19'0 0.0
2017-Sep-14 01:29N 37°28' E 025°19'0 0.0
2017-Sep-14 00:59N 37°28' E 025°19'0 0.0
2017-Sep-14 00:29N 37°28' E 025°19'0 0.0
2017-Sep-13 23:59N 37°28' E 025°19'0 0.0
2017-Sep-13 23:29N 37°28' E 025°19'0 0.0
2017-Sep-13 22:59N 37°28' E 025°19'0 0.0
2017-Sep-13 22:29N 37°28' E 025°19'0 0.0
2017-Sep-13 21:59N 37°28' E 025°19'0 0.0
2017-Sep-13 21:29N 37°28' E 025°19'0 0.0
2017-Sep-13 20:59N 37°28' E 025°19'0 0.0
2017-Sep-13 20:29N 37°28' E 025°19'0 0.0
2017-Sep-13 19:59N 37°28' E 025°19'0 0.0
2017-Sep-13 19:29N 37°28' E 025°19'0 0.0
2017-Sep-13 18:53N 37°28' E 025°19'0 0.0
2017-Sep-13 18:23N 37°28' E 025°19'0 0.0
2017-Sep-13 17:53N 37°28' E 025°19'0 0.0
2017-Sep-13 17:29N 37°28' E 025°19'0 0.0
2017-Sep-13 16:59N 37°28' E 025°19'1 2.4
2017-Sep-13 16:30N 37°27' E 025°19'0 0.0
2017-Sep-13 15:57N 37°27' E 025°19'0 0.0
2017-Sep-13 15:24N 37°27' E 025°19'0 0.0
2017-Sep-13 14:54N 37°27' E 025°19'0 0.0
2017-Sep-13 14:30N 37°27' E 025°19'0 0.0
2017-Sep-13 14:00N 37°27' E 025°19'0 0.0
2017-Sep-13 13:30N 37°27' E 025°19'0 0.0
2017-Sep-13 12:57N 37°27' E 025°19'0 0.0
2017-Sep-13 12:30N 37°27' E 025°19'0 0.0
2017-Sep-13 12:00N 37°27' E 025°19'0 0.0
2017-Sep-13 11:30N 37°27' E 025°19'0 0.0
2017-Sep-13 11:00N 37°27' E 025°19'0 0.1
2017-Sep-13 10:30N 37°27' E 025°19'0 0.0
2017-Sep-13 09:57N 37°27' E 025°19'0 0.3
2017-Sep-13 09:30N 37°27' E 025°19'3 5.9
2017-Sep-13 09:01N 37°24' E 025°17'510.4
2017-Sep-13 08:31N 37°19' E 025°18'510.1
2017-Sep-13 08:01N 37°14' E 025°20'510.2
2017-Sep-13 07:31N 37°09' E 025°21'3 5.7
2017-Sep-13 06:58N 37°06' E 025°21'0 0.1
2017-Sep-13 06:28N 37°06' E 025°21'0 0.0
2017-Sep-13 05:58N 37°06' E 025°21'0 0.1
2017-Sep-13 05:28N 37°06' E 025°21'0 0.0
2017-Sep-13 04:58N 37°06' E 025°21'0 0.0
2017-Sep-13 04:28N 37°06' E 025°21'0 0.0
2017-Sep-13 03:58N 37°06' E 025°21'0 0.0
2017-Sep-13 03:28N 37°06' E 025°21'0 0.0
2017-Sep-13 02:58N 37°06' E 025°21'0 0.1
2017-Sep-13 02:28N 37°06' E 025°21'0 0.1
2017-Sep-13 01:58N 37°06' E 025°21'0 0.0
2017-Sep-13 01:28N 37°06' E 025°21'0 0.0
2017-Sep-13 00:55N 37°06' E 025°21'0 0.0
2017-Sep-13 00:28N 37°06' E 025°21'0 0.0
2017-Sep-12 23:58N 37°06' E 025°21'0 0.0
2017-Sep-12 23:28N 37°06' E 025°21'0 0.0
2017-Sep-12 22:55N 37°06' E 025°21'0 0.0
2017-Sep-12 22:28N 37°06' E 025°21'0 0.0
2017-Sep-12 21:58N 37°06' E 025°21'0 0.0
2017-Sep-12 21:28N 37°06' E 025°21'0 0.1
2017-Sep-12 20:58N 37°06' E 025°21'1 1.6
2017-Sep-12 20:31N 37°06' E 025°22'0 0.0
2017-Sep-12 20:00N 37°06' E 025°22'0 0.0
2017-Sep-12 19:30N 37°06' E 025°22'0 0.0
2017-Sep-12 18:57N 37°06' E 025°22'0 0.0
2017-Sep-12 18:30N 37°06' E 025°22'0 0.0
2017-Sep-12 17:24N 37°06' E 025°22'0 0.0
2017-Sep-12 17:00N 37°06' E 025°22'0 0.0
2017-Sep-12 16:30N 37°06' E 025°22'0 0.0
2017-Sep-12 16:00N 37°06' E 025°22'0 0.7
2017-Sep-12 15:30N 37°06' E 025°22'1 1.0
2017-Sep-12 14:58N 37°06' E 025°21'0 0.0
2017-Sep-12 14:28N 37°06' E 025°21'0 0.0
2017-Sep-12 13:58N 37°06' E 025°21'0 0.0
2017-Sep-12 13:28N 37°06' E 025°21'0 0.0
2017-Sep-12 12:58N 37°06' E 025°21'0 0.0
2017-Sep-12 12:28N 37°06' E 025°21'0 0.0
2017-Sep-12 12:00N 37°06' E 025°21'0 0.2
2017-Sep-12 11:30N 37°06' E 025°21'0 0.0
2017-Sep-12 11:00N 37°06' E 025°21'0 0.2
2017-Sep-12 10:30N 37°06' E 025°21'0 0.2
2017-Sep-12 10:00N 37°06' E 025°21'4 8.9
2017-Sep-12 09:30N 37°10' E 025°19'510.5
2017-Sep-12 09:00N 37°15' E 025°16'510.7
2017-Sep-12 08:30N 37°20' E 025°13'510.2
2017-Sep-12 08:00N 37°24' E 025°11'510.1
2017-Sep-12 07:30N 37°29' E 025°10'3 5.4
2017-Sep-12 06:58N 37°32' E 025°09'0 0.0
2017-Sep-12 06:28N 37°32' E 025°09'0 0.0
2017-Sep-12 05:52N 37°32' E 025°09'0 0.0
2017-Sep-12 05:28N 37°32' E 025°09'0 0.0
2017-Sep-12 04:58N 37°32' E 025°09'0 0.0
2017-Sep-12 04:28N 37°32' E 025°09'0 0.0
2017-Sep-12 03:58N 37°32' E 025°09'0 0.0
2017-Sep-12 03:28N 37°32' E 025°09'0 0.0
2017-Sep-12 02:58N 37°32' E 025°09'0 0.0
2017-Sep-12 02:28N 37°32' E 025°09'0 0.0
2017-Sep-12 01:58N 37°32' E 025°09'0 0.0
2017-Sep-12 01:28N 37°32' E 025°09'0 0.0
2017-Sep-12 00:58N 37°32' E 025°09'0 0.0
2017-Sep-12 00:28N 37°32' E 025°09'0 0.0
2017-Sep-11 23:58N 37°32' E 025°09'0 0.0
2017-Sep-11 23:25N 37°32' E 025°09'0 0.0
2017-Sep-11 22:58N 37°32' E 025°09'0 0.0
2017-Sep-11 22:25N 37°32' E 025°09'0 0.0
2017-Sep-11 21:58N 37°32' E 025°09'0 0.0
2017-Sep-11 21:28N 37°32' E 025°09'0 0.0
2017-Sep-11 20:58N 37°32' E 025°09'0 0.0
2017-Sep-11 20:28N 37°32' E 025°09'0 0.0
2017-Sep-11 19:55N 37°32' E 025°09'0 0.0
2017-Sep-11 19:28N 37°32' E 025°09'0 0.0
2017-Sep-11 18:55N 37°32' E 025°09'0 0.0
2017-Sep-11 18:25N 37°32' E 025°09'0 0.0
2017-Sep-11 17:55N 37°32' E 025°09'0 0.0
2017-Sep-11 17:22N 37°32' E 025°09'0 0.0
2017-Sep-11 16:52N 37°32' E 025°09'0 0.0
2017-Sep-11 16:28N 37°32' E 025°09'0 1.0
2017-Sep-11 16:00N 37°32' E 025°09'510.2
2017-Sep-11 15:30N 37°29' E 025°04'611.1
2017-Sep-11 15:00N 37°26' E 024°58'1 0.3
2017-Sep-11 11:43N 37°26' E 024°56'0 0.0
2017-Sep-11 11:19N 37°26' E 024°56'0 0.0
2017-Sep-11 10:58N 37°26' E 024°56'  

Dump ship's entire track history